sensor_id;sensor_type;location;lat;lon;timestamp;temperature;humidity
32296;DHT22;18781;51.550;5.418;2023-07-31T00:00:05;20.10;73.70
32296;DHT22;18781;51.550;5.418;2023-07-31T00:02:31;20.10;73.70
32296;DHT22;18781;51.550;5.418;2023-07-31T00:04:57;20.10;73.70
32296;DHT22;18781;51.550;5.418;2023-07-31T00:07:22;20.10;73.60
32296;DHT22;18781;51.550;5.418;2023-07-31T00:09:48;20.10;73.70
32296;DHT22;18781;51.550;5.418;2023-07-31T00:12:13;20.10;73.70
32296;DHT22;18781;51.550;5.418;2023-07-31T00:14:39;20.10;73.80
32296;DHT22;18781;51.550;5.418;2023-07-31T00:17:05;20.10;73.70
32296;DHT22;18781;51.550;5.418;2023-07-31T00:19:30;20.10;73.80
32296;DHT22;18781;51.550;5.418;2023-07-31T00:21:56;20.10;73.90
32296;DHT22;18781;51.550;5.418;2023-07-31T00:24:21;20.10;73.80
32296;DHT22;18781;51.550;5.418;2023-07-31T00:26:47;20.10;73.90
32296;DHT22;18781;51.550;5.418;2023-07-31T00:29:12;20.10;73.80
32296;DHT22;18781;51.550;5.418;2023-07-31T00:31:38;20.10;73.90
32296;DHT22;18781;51.550;5.418;2023-07-31T00:34:04;20.10;73.90
32296;DHT22;18781;51.550;5.418;2023-07-31T00:36:29;20.10;73.80
32296;DHT22;18781;51.550;5.418;2023-07-31T00:38:55;20.10;73.90
32296;DHT22;18781;51.550;5.418;2023-07-31T00:41:21;20.10;73.90
32296;DHT22;18781;51.550;5.418;2023-07-31T00:43:46;20.10;73.90
32296;DHT22;18781;51.550;5.418;2023-07-31T00:46:12;20.10;73.90
32296;DHT22;18781;51.550;5.418;2023-07-31T00:48:39;20.10;74.40
32296;DHT22;18781;51.550;5.418;2023-07-31T00:51:04;20.10;73.90
32296;DHT22;18781;51.550;5.418;2023-07-31T00:53:30;20.10;73.90
32296;DHT22;18781;51.550;5.418;2023-07-31T00:55:56;20.10;73.90
32296;DHT22;18781;51.550;5.418;2023-07-31T00:58:22;20.10;74.00
32296;DHT22;18781;51.550;5.418;2023-07-31T01:00:49;20.10;74.00
32296;DHT22;18781;51.550;5.418;2023-07-31T01:03:16;20.10;74.10
32296;DHT22;18781;51.550;5.418;2023-07-31T01:05:49;20.10;74.00
32296;DHT22;18781;51.550;5.418;2023-07-31T01:10:50;20.10;74.30
32296;DHT22;18781;51.550;5.418;2023-07-31T01:13:17;20.00;74.00
32296;DHT22;18781;51.550;5.418;2023-07-31T01:15:43;20.10;74.00
32296;DHT22;18781;51.550;5.418;2023-07-31T01:18:09;20.10;74.00
32296;DHT22;18781;51.550;5.418;2023-07-31T01:20:35;20.10;73.90
32296;DHT22;18781;51.550;5.418;2023-07-31T01:25:59;20.10;74.00
32296;DHT22;18781;51.550;5.418;2023-07-31T01:31:00;20.00;73.90
32296;DHT22;18781;51.550;5.418;2023-07-31T01:33:27;20.00;73.90
32296;DHT22;18781;51.550;5.418;2023-07-31T01:35:53;20.00;73.40
32296;DHT22;18781;51.550;5.418;2023-07-31T01:38:22;20.00;73.70
32296;DHT22;18781;51.550;5.418;2023-07-31T01:40:52;20.00;73.90
32296;DHT22;18781;51.550;5.418;2023-07-31T01:43:18;20.00;73.80
32296;DHT22;18781;51.550;5.418;2023-07-31T01:45:44;19.90;73.70
32296;DHT22;18781;51.550;5.418;2023-07-31T01:48:10;20.00;73.80
32296;DHT22;18781;51.550;5.418;2023-07-31T01:50:35;20.00;73.70
32296;DHT22;18781;51.550;5.418;2023-07-31T01:53:01;20.00;73.70
32296;DHT22;18781;51.550;5.418;2023-07-31T01:55:26;20.00;73.60
32296;DHT22;18781;51.550;5.418;2023-07-31T01:57:52;20.00;73.70
32296;DHT22;18781;51.550;5.418;2023-07-31T02:00:18;20.00;73.50
32296;DHT22;18781;51.550;5.418;2023-07-31T02:02:44;19.90;73.40
32296;DHT22;18781;51.550;5.418;2023-07-31T02:05:09;19.90;73.40
32296;DHT22;18781;51.550;5.418;2023-07-31T02:07:35;19.90;73.30
32296;DHT22;18781;51.550;5.418;2023-07-31T02:10:00;19.90;73.20
32296;DHT22;18781;51.550;5.418;2023-07-31T02:12:26;19.90;73.20
32296;DHT22;18781;51.550;5.418;2023-07-31T02:14:51;19.90;73.20
32296;DHT22;18781;51.550;5.418;2023-07-31T02:17:17;19.90;73.20
32296;DHT22;18781;51.550;5.418;2023-07-31T02:19:43;19.90;73.30
32296;DHT22;18781;51.550;5.418;2023-07-31T02:22:08;19.80;73.30
32296;DHT22;18781;51.550;5.418;2023-07-31T02:24:34;19.80;73.20
32296;DHT22;18781;51.550;5.418;2023-07-31T02:26:59;19.80;73.20
32296;DHT22;18781;51.550;5.418;2023-07-31T02:29:25;19.80;73.10
32296;DHT22;18781;51.550;5.418;2023-07-31T02:31:50;19.80;73.10
32296;DHT22;18781;51.550;5.418;2023-07-31T02:34:16;19.80;73.10
32296;DHT22;18781;51.550;5.418;2023-07-31T02:36:42;19.80;73.20
32296;DHT22;18781;51.550;5.418;2023-07-31T02:39:07;19.80;73.10
32296;DHT22;18781;51.550;5.418;2023-07-31T02:41:33;19.80;73.10
32296;DHT22;18781;51.550;5.418;2023-07-31T02:43:58;19.80;73.00
32296;DHT22;18781;51.550;5.418;2023-07-31T02:46:24;19.80;73.00
32296;DHT22;18781;51.550;5.418;2023-07-31T02:48:50;19.80;73.00
32296;DHT22;18781;51.550;5.418;2023-07-31T02:51:16;19.80;72.90
32296;DHT22;18781;51.550;5.418;2023-07-31T02:53:42;19.70;73.00
32296;DHT22;18781;51.550;5.418;2023-07-31T02:56:07;19.70;73.40
32296;DHT22;18781;51.550;5.418;2023-07-31T02:58:33;19.70;72.80
32296;DHT22;18781;51.550;5.418;2023-07-31T03:00:59;19.70;72.80
32296;DHT22;18781;51.550;5.418;2023-07-31T03:03:24;19.70;72.70
32296;DHT22;18781;51.550;5.418;2023-07-31T03:05:50;19.70;72.80
32296;DHT22;18781;51.550;5.418;2023-07-31T03:08:15;19.70;72.70
32296;DHT22;18781;51.550;5.418;2023-07-31T03:10:41;19.70;72.80
32296;DHT22;18781;51.550;5.418;2023-07-31T03:13:07;19.70;72.80
32296;DHT22;18781;51.550;5.418;2023-07-31T03:15:32;19.70;72.80
32296;DHT22;18781;51.550;5.418;2023-07-31T03:17:58;19.70;72.80
32296;DHT22;18781;51.550;5.418;2023-07-31T03:20:24;19.70;72.70
32296;DHT22;18781;51.550;5.418;2023-07-31T03:22:49;19.70;72.70
32296;DHT22;18781;51.550;5.418;2023-07-31T03:25:15;19.70;72.80
32296;DHT22;18781;51.550;5.418;2023-07-31T03:27:40;19.70;72.80
32296;DHT22;18781;51.550;5.418;2023-07-31T03:30:06;19.70;72.80
32296;DHT22;18781;51.550;5.418;2023-07-31T03:32:32;19.70;72.70
32296;DHT22;18781;51.550;5.418;2023-07-31T03:34:58;19.70;72.70
32296;DHT22;18781;51.550;5.418;2023-07-31T03:37:23;19.70;72.80
32296;DHT22;18781;51.550;5.418;2023-07-31T03:39:49;19.70;72.80
32296;DHT22;18781;51.550;5.418;2023-07-31T03:42:14;19.70;72.90
32296;DHT22;18781;51.550;5.418;2023-07-31T03:44:40;19.70;72.90
32296;DHT22;18781;51.550;5.418;2023-07-31T03:47:05;19.70;72.80
32296;DHT22;18781;51.550;5.418;2023-07-31T03:49:31;19.70;72.90
32296;DHT22;18781;51.550;5.418;2023-07-31T03:51:57;19.70;72.90
32296;DHT22;18781;51.550;5.418;2023-07-31T03:54:22;19.60;72.90
32296;DHT22;18781;51.550;5.418;2023-07-31T03:56:48;19.70;73.00
32296;DHT22;18781;51.550;5.418;2023-07-31T03:59:13;19.70;73.10
32296;DHT22;18781;51.550;5.418;2023-07-31T04:01:39;19.70;73.10
32296;DHT22;18781;51.550;5.418;2023-07-31T04:04:04;19.70;73.00
32296;DHT22;18781;51.550;5.418;2023-07-31T04:06:30;19.70;73.10
32296;DHT22;18781;51.550;5.418;2023-07-31T04:08:56;19.70;73.10
32296;DHT22;18781;51.550;5.418;2023-07-31T04:11:21;19.70;73.20
32296;DHT22;18781;51.550;5.418;2023-07-31T04:13:47;19.70;73.20
32296;DHT22;18781;51.550;5.418;2023-07-31T04:16:13;19.70;73.30
32296;DHT22;18781;51.550;5.418;2023-07-31T04:18:38;19.70;73.30
32296;DHT22;18781;51.550;5.418;2023-07-31T04:21:04;19.70;73.50
32296;DHT22;18781;51.550;5.418;2023-07-31T04:23:29;19.70;73.60
32296;DHT22;18781;51.550;5.418;2023-07-31T04:25:55;19.70;73.60
32296;DHT22;18781;51.550;5.418;2023-07-31T04:28:21;19.70;73.60
32296;DHT22;18781;51.550;5.418;2023-07-31T04:30:47;19.80;73.70
32296;DHT22;18781;51.550;5.418;2023-07-31T04:33:13;19.80;73.70
32296;DHT22;18781;51.550;5.418;2023-07-31T04:35:38;19.70;73.80
32296;DHT22;18781;51.550;5.418;2023-07-31T04:38:04;19.80;73.90
32296;DHT22;18781;51.550;5.418;2023-07-31T04:40:29;19.80;74.00
32296;DHT22;18781;51.550;5.418;2023-07-31T04:42:55;19.80;73.90
32296;DHT22;18781;51.550;5.418;2023-07-31T04:45:20;19.80;74.00
32296;DHT22;18781;51.550;5.418;2023-07-31T04:47:46;19.80;74.00
32296;DHT22;18781;51.550;5.418;2023-07-31T04:50:12;19.80;74.00
32296;DHT22;18781;51.550;5.418;2023-07-31T04:52:37;19.90;74.20
32296;DHT22;18781;51.550;5.418;2023-07-31T04:55:03;19.90;74.30
32296;DHT22;18781;51.550;5.418;2023-07-31T04:57:28;19.90;74.30
32296;DHT22;18781;51.550;5.418;2023-07-31T04:59:54;19.90;74.40
32296;DHT22;18781;51.550;5.418;2023-07-31T05:02:20;19.90;74.30
32296;DHT22;18781;51.550;5.418;2023-07-31T05:04:45;19.90;74.40
32296;DHT22;18781;51.550;5.418;2023-07-31T05:07:11;19.90;74.40
32296;DHT22;18781;51.550;5.418;2023-07-31T05:09:36;19.90;74.40
32296;DHT22;18781;51.550;5.418;2023-07-31T05:12:04;19.90;74.40
32296;DHT22;18781;51.550;5.418;2023-07-31T05:14:29;20.00;74.60
32296;DHT22;18781;51.550;5.418;2023-07-31T05:16:55;19.90;74.60
32296;DHT22;18781;51.550;5.418;2023-07-31T05:19:20;20.00;74.70
32296;DHT22;18781;51.550;5.418;2023-07-31T05:21:46;20.00;74.70
32296;DHT22;18781;51.550;5.418;2023-07-31T05:24:11;20.00;74.80
32296;DHT22;18781;51.550;5.418;2023-07-31T05:26:37;20.00;74.80
32296;DHT22;18781;51.550;5.418;2023-07-31T05:29:03;20.00;74.80
32296;DHT22;18781;51.550;5.418;2023-07-31T05:31:29;20.00;74.90
32296;DHT22;18781;51.550;5.418;2023-07-31T05:33:54;20.00;75.00
32296;DHT22;18781;51.550;5.418;2023-07-31T05:36:20;20.00;75.00
32296;DHT22;18781;51.550;5.418;2023-07-31T05:38:45;20.00;75.10
32296;DHT22;18781;51.550;5.418;2023-07-31T05:41:12;20.00;75.10
32296;DHT22;18781;51.550;5.418;2023-07-31T05:43:38;20.00;75.10
32296;DHT22;18781;51.550;5.418;2023-07-31T05:46:03;20.10;75.30
32296;DHT22;18781;51.550;5.418;2023-07-31T05:48:29;20.00;75.20
32296;DHT22;18781;51.550;5.418;2023-07-31T05:50:55;20.00;75.30
32296;DHT22;18781;51.550;5.418;2023-07-31T05:53:20;20.00;75.30
32296;DHT22;18781;51.550;5.418;2023-07-31T05:55:46;20.00;75.50
32296;DHT22;18781;51.550;5.418;2023-07-31T05:58:11;20.00;75.60
32296;DHT22;18781;51.550;5.418;2023-07-31T06:00:37;20.00;75.70
32296;DHT22;18781;51.550;5.418;2023-07-31T06:03:03;20.00;75.80
32296;DHT22;18781;51.550;5.418;2023-07-31T06:05:28;20.00;75.70
32296;DHT22;18781;51.550;5.418;2023-07-31T06:07:55;20.00;75.90
32296;DHT22;18781;51.550;5.418;2023-07-31T06:10:21;20.00;76.00
32296;DHT22;18781;51.550;5.418;2023-07-31T06:12:47;20.00;76.00
32296;DHT22;18781;51.550;5.418;2023-07-31T06:15:12;20.00;76.00
32296;DHT22;18781;51.550;5.418;2023-07-31T06:17:38;20.00;76.10
32296;DHT22;18781;51.550;5.418;2023-07-31T06:20:04;20.00;76.20
32296;DHT22;18781;51.550;5.418;2023-07-31T06:22:32;20.00;76.20
32296;DHT22;18781;51.550;5.418;2023-07-31T06:24:58;20.00;76.30
32296;DHT22;18781;51.550;5.418;2023-07-31T06:27:24;20.00;76.30
32296;DHT22;18781;51.550;5.418;2023-07-31T06:29:50;20.00;76.40
32296;DHT22;18781;51.550;5.418;2023-07-31T06:32:15;20.00;76.50
32296;DHT22;18781;51.550;5.418;2023-07-31T06:34:41;20.00;76.60
32296;DHT22;18781;51.550;5.418;2023-07-31T06:37:06;20.00;76.70
32296;DHT22;18781;51.550;5.418;2023-07-31T06:39:32;20.10;76.80
32296;DHT22;18781;51.550;5.418;2023-07-31T06:41:57;20.00;76.70
32296;DHT22;18781;51.550;5.418;2023-07-31T06:44:23;20.00;76.90
32296;DHT22;18781;51.550;5.418;2023-07-31T06:46:48;20.00;77.40
32296;DHT22;18781;51.550;5.418;2023-07-31T06:49:14;20.00;76.90
32296;DHT22;18781;51.550;5.418;2023-07-31T06:51:42;20.00;77.00
32296;DHT22;18781;51.550;5.418;2023-07-31T06:54:09;20.10;76.90
32296;DHT22;18781;51.550;5.418;2023-07-31T06:56:35;20.10;77.00
32296;DHT22;18781;51.550;5.418;2023-07-31T06:59:00;20.10;77.10
32296;DHT22;18781;51.550;5.418;2023-07-31T07:01:26;20.10;77.10
32296;DHT22;18781;51.550;5.418;2023-07-31T07:03:52;20.10;77.20
32296;DHT22;18781;51.550;5.418;2023-07-31T07:06:18;20.10;77.20
32296;DHT22;18781;51.550;5.418;2023-07-31T07:08:44;20.10;77.30
32296;DHT22;18781;51.550;5.418;2023-07-31T07:11:10;20.10;77.30
32296;DHT22;18781;51.550;5.418;2023-07-31T07:13:35;20.10;77.30
32296;DHT22;18781;51.550;5.418;2023-07-31T07:16:01;20.10;77.40
32296;DHT22;18781;51.550;5.418;2023-07-31T07:18:26;20.10;77.40
32296;DHT22;18781;51.550;5.418;2023-07-31T07:20:53;20.10;77.50
32296;DHT22;18781;51.550;5.418;2023-07-31T07:23:20;20.20;77.50
32296;DHT22;18781;51.550;5.418;2023-07-31T07:25:46;20.20;77.50
32296;DHT22;18781;51.550;5.418;2023-07-31T07:28:12;20.20;77.50
32296;DHT22;18781;51.550;5.418;2023-07-31T07:30:38;20.20;77.60
32296;DHT22;18781;51.550;5.418;2023-07-31T07:33:04;20.20;77.70
32296;DHT22;18781;51.550;5.418;2023-07-31T07:35:29;20.20;77.60
32296;DHT22;18781;51.550;5.418;2023-07-31T07:37:55;20.20;77.70
32296;DHT22;18781;51.550;5.418;2023-07-31T07:40:21;20.20;77.70
32296;DHT22;18781;51.550;5.418;2023-07-31T07:42:46;20.20;77.70
32296;DHT22;18781;51.550;5.418;2023-07-31T07:45:12;20.20;77.80
32296;DHT22;18781;51.550;5.418;2023-07-31T07:47:42;20.20;77.70
32296;DHT22;18781;51.550;5.418;2023-07-31T07:50:08;20.20;77.80
32296;DHT22;18781;51.550;5.418;2023-07-31T07:52:33;20.20;77.70
32296;DHT22;18781;51.550;5.418;2023-07-31T07:54:59;20.30;77.80
32296;DHT22;18781;51.550;5.418;2023-07-31T07:57:25;20.30;77.90
32296;DHT22;18781;51.550;5.418;2023-07-31T07:59:51;20.30;77.90
32296;DHT22;18781;51.550;5.418;2023-07-31T08:02:16;20.30;77.80
32296;DHT22;18781;51.550;5.418;2023-07-31T08:04:42;20.30;77.80
32296;DHT22;18781;51.550;5.418;2023-07-31T08:07:10;20.30;77.70
32296;DHT22;18781;51.550;5.418;2023-07-31T08:09:35;20.30;77.70
32296;DHT22;18781;51.550;5.418;2023-07-31T08:12:01;20.30;77.70
32296;DHT22;18781;51.550;5.418;2023-07-31T08:14:28;20.30;77.70
32296;DHT22;18781;51.550;5.418;2023-07-31T08:16:54;20.30;77.70
32296;DHT22;18781;51.550;5.418;2023-07-31T08:19:19;20.30;77.80
32296;DHT22;18781;51.550;5.418;2023-07-31T08:21:45;20.30;77.90
32296;DHT22;18781;51.550;5.418;2023-07-31T08:24:11;20.30;77.90
32296;DHT22;18781;51.550;5.418;2023-07-31T08:26:36;20.40;78.00
32296;DHT22;18781;51.550;5.418;2023-07-31T08:29:02;20.40;78.00
32296;DHT22;18781;51.550;5.418;2023-07-31T08:31:27;20.40;77.90
32296;DHT22;18781;51.550;5.418;2023-07-31T08:33:54;20.30;77.80
32296;DHT22;18781;51.550;5.418;2023-07-31T08:36:20;20.40;77.90
32296;DHT22;18781;51.550;5.418;2023-07-31T08:38:46;20.40;77.90
32296;DHT22;18781;51.550;5.418;2023-07-31T08:41:12;20.40;77.90
32296;DHT22;18781;51.550;5.418;2023-07-31T08:43:39;20.40;77.80
32296;DHT22;18781;51.550;5.418;2023-07-31T08:46:05;20.40;77.90
32296;DHT22;18781;51.550;5.418;2023-07-31T08:48:32;20.40;77.80
32296;DHT22;18781;51.550;5.418;2023-07-31T08:50:58;20.40;77.80
32296;DHT22;18781;51.550;5.418;2023-07-31T08:53:24;20.40;77.70
32296;DHT22;18781;51.550;5.418;2023-07-31T08:55:52;20.40;77.80
32296;DHT22;18781;51.550;5.418;2023-07-31T08:58:19;20.40;77.90
32296;DHT22;18781;51.550;5.418;2023-07-31T09:00:46;20.40;77.60
32296;DHT22;18781;51.550;5.418;2023-07-31T09:03:13;20.40;77.80
32296;DHT22;18781;51.550;5.418;2023-07-31T09:05:42;20.40;77.80
32296;DHT22;18781;51.550;5.418;2023-07-31T09:08:09;20.50;77.90
32296;DHT22;18781;51.550;5.418;2023-07-31T09:10:43;20.50;77.90
32296;DHT22;18781;51.550;5.418;2023-07-31T09:13:09;20.50;77.90
32296;DHT22;18781;51.550;5.418;2023-07-31T09:15:36;20.50;77.80
32296;DHT22;18781;51.550;5.418;2023-07-31T09:18:03;20.50;77.80
32296;DHT22;18781;51.550;5.418;2023-07-31T09:20:29;20.50;78.40
32296;DHT22;18781;51.550;5.418;2023-07-31T09:22:55;20.50;77.80
32296;DHT22;18781;51.550;5.418;2023-07-31T09:25:25;20.50;77.80
32296;DHT22;18781;51.550;5.418;2023-07-31T09:27:59;20.50;77.90
32296;DHT22;18781;51.550;5.418;2023-07-31T09:30:25;20.50;77.90
32296;DHT22;18781;51.550;5.418;2023-07-31T09:33:03;20.50;77.80
32296;DHT22;18781;51.550;5.418;2023-07-31T09:35:33;20.60;77.90
32296;DHT22;18781;51.550;5.418;2023-07-31T09:38:03;20.60;77.90
32296;DHT22;18781;51.550;5.418;2023-07-31T09:40:32;20.60;77.90
32296;DHT22;18781;51.550;5.418;2023-07-31T09:43:01;20.70;77.60
32296;DHT22;18781;51.550;5.418;2023-07-31T09:45:28;20.70;77.40
32296;DHT22;18781;51.550;5.418;2023-07-31T09:47:54;20.70;77.80
32296;DHT22;18781;51.550;5.418;2023-07-31T09:50:22;20.70;77.90
32296;DHT22;18781;51.550;5.418;2023-07-31T09:52:48;20.70;77.80
32296;DHT22;18781;51.550;5.418;2023-07-31T09:55:14;20.80;77.90
32296;DHT22;18781;51.550;5.418;2023-07-31T09:57:41;20.80;77.80
32296;DHT22;18781;51.550;5.418;2023-07-31T10:00:09;20.80;77.70
32296;DHT22;18781;51.550;5.418;2023-07-31T10:02:36;20.80;77.60
32296;DHT22;18781;51.550;5.418;2023-07-31T10:05:03;20.90;78.10
32296;DHT22;18781;51.550;5.418;2023-07-31T10:07:30;20.90;77.70
32296;DHT22;18781;51.550;5.418;2023-07-31T10:10:00;20.90;77.60
32296;DHT22;18781;51.550;5.418;2023-07-31T10:12:27;20.90;77.60
32296;DHT22;18781;51.550;5.418;2023-07-31T10:14:55;21.00;77.60
32296;DHT22;18781;51.550;5.418;2023-07-31T10:17:22;21.00;77.70
32296;DHT22;18781;51.550;5.418;2023-07-31T10:19:51;21.10;78.10
32296;DHT22;18781;51.550;5.418;2023-07-31T10:22:19;21.10;78.10
32296;DHT22;18781;51.550;5.418;2023-07-31T10:24:45;21.20;78.00
32296;DHT22;18781;51.550;5.418;2023-07-31T10:27:12;21.20;77.80
32296;DHT22;18781;51.550;5.418;2023-07-31T10:29:39;21.30;77.60
32296;DHT22;18781;51.550;5.418;2023-07-31T10:32:06;21.30;77.50
32296;DHT22;18781;51.550;5.418;2023-07-31T10:34:35;21.40;77.50
32296;DHT22;18781;51.550;5.418;2023-07-31T10:37:30;21.40;77.50
32296;DHT22;18781;51.550;5.418;2023-07-31T10:42:34;21.50;77.30
32296;DHT22;18781;51.550;5.418;2023-07-31T10:45:05;21.50;77.00
32296;DHT22;18781;51.550;5.418;2023-07-31T10:47:42;21.50;77.00
32296;DHT22;18781;51.550;5.418;2023-07-31T10:50:21;21.60;77.00
32296;DHT22;18781;51.550;5.418;2023-07-31T10:52:53;21.70;76.50
32296;DHT22;18781;51.550;5.418;2023-07-31T10:55:33;21.70;76.50
32296;DHT22;18781;51.550;5.418;2023-07-31T10:58:13;21.70;76.20
32296;DHT22;18781;51.550;5.418;2023-07-31T11:00:41;21.70;75.80
32296;DHT22;18781;51.550;5.418;2023-07-31T11:03:14;21.70;75.80
32296;DHT22;18781;51.550;5.418;2023-07-31T11:08:18;21.70;75.80
32296;DHT22;18781;51.550;5.418;2023-07-31T11:10:45;21.80;75.80
32296;DHT22;18781;51.550;5.418;2023-07-31T11:13:11;21.80;75.90
32296;DHT22;18781;51.550;5.418;2023-07-31T11:15:37;21.80;75.90
32296;DHT22;18781;51.550;5.418;2023-07-31T11:18:03;21.80;75.70
32296;DHT22;18781;51.550;5.418;2023-07-31T11:20:34;21.90;75.90
32296;DHT22;18781;51.550;5.418;2023-07-31T11:23:06;21.90;75.80
32296;DHT22;18781;51.550;5.418;2023-07-31T11:25:32;21.90;75.40
32296;DHT22;18781;51.550;5.418;2023-07-31T11:28:05;21.90;75.50
32296;DHT22;18781;51.550;5.418;2023-07-31T11:30:31;22.00;75.30
32296;DHT22;18781;51.550;5.418;2023-07-31T11:32:57;22.00;75.10
32296;DHT22;18781;51.550;5.418;2023-07-31T11:35:22;22.00;75.00
32296;DHT22;18781;51.550;5.418;2023-07-31T11:37:48;22.00;75.20
32296;DHT22;18781;51.550;5.418;2023-07-31T11:40:14;22.00;75.10
32296;DHT22;18781;51.550;5.418;2023-07-31T11:42:40;22.00;75.40
32296;DHT22;18781;51.550;5.418;2023-07-31T11:45:07;22.10;75.60
32296;DHT22;18781;51.550;5.418;2023-07-31T11:47:34;22.10;75.20
32296;DHT22;18781;51.550;5.418;2023-07-31T11:50:03;22.10;75.40
32296;DHT22;18781;51.550;5.418;2023-07-31T11:52:44;22.20;75.00
32296;DHT22;18781;51.550;5.418;2023-07-31T11:55:11;22.20;74.90
32296;DHT22;18781;51.550;5.418;2023-07-31T11:57:39;22.20;75.00
32296;DHT22;18781;51.550;5.418;2023-07-31T12:00:07;22.20;75.00
32296;DHT22;18781;51.550;5.418;2023-07-31T12:02:34;22.30;74.70
32296;DHT22;18781;51.550;5.418;2023-07-31T12:05:00;22.30;74.90
32296;DHT22;18781;51.550;5.418;2023-07-31T12:07:25;22.30;74.60
32296;DHT22;18781;51.550;5.418;2023-07-31T12:09:54;22.30;74.50
32296;DHT22;18781;51.550;5.418;2023-07-31T12:12:21;22.30;74.40
32296;DHT22;18781;51.550;5.418;2023-07-31T12:14:47;22.30;74.70
32296;DHT22;18781;51.550;5.418;2023-07-31T12:17:14;22.30;74.40
32296;DHT22;18781;51.550;5.418;2023-07-31T12:19:40;22.30;74.40
32296;DHT22;18781;51.550;5.418;2023-07-31T12:22:15;22.30;74.30
32296;DHT22;18781;51.550;5.418;2023-07-31T12:24:43;22.30;74.60
32296;DHT22;18781;51.550;5.418;2023-07-31T12:27:13;22.30;74.50
32296;DHT22;18781;51.550;5.418;2023-07-31T12:29:39;22.30;74.60
32296;DHT22;18781;51.550;5.418;2023-07-31T12:32:24;22.40;74.40
32296;DHT22;18781;51.550;5.418;2023-07-31T12:34:54;22.30;74.20
32296;DHT22;18781;51.550;5.418;2023-07-31T12:37:23;22.30;74.50
32296;DHT22;18781;51.550;5.418;2023-07-31T12:39:48;22.40;74.50
32296;DHT22;18781;51.550;5.418;2023-07-31T12:42:14;22.40;74.60
32296;DHT22;18781;51.550;5.418;2023-07-31T12:44:42;22.40;74.60
32296;DHT22;18781;51.550;5.418;2023-07-31T12:47:07;22.40;74.80
32296;DHT22;18781;51.550;5.418;2023-07-31T12:49:33;22.40;74.70
32296;DHT22;18781;51.550;5.418;2023-07-31T12:51:58;22.40;74.80
32296;DHT22;18781;51.550;5.418;2023-07-31T12:54:24;22.30;74.80
32296;DHT22;18781;51.550;5.418;2023-07-31T12:56:50;22.30;74.70
32296;DHT22;18781;51.550;5.418;2023-07-31T12:59:15;22.30;74.90
32296;DHT22;18781;51.550;5.418;2023-07-31T13:01:41;22.30;75.00
32296;DHT22;18781;51.550;5.418;2023-07-31T13:04:06;22.30;75.30
32296;DHT22;18781;51.550;5.418;2023-07-31T13:06:33;22.30;75.30
32296;DHT22;18781;51.550;5.418;2023-07-31T13:08:59;22.40;75.10
32296;DHT22;18781;51.550;5.418;2023-07-31T13:11:25;22.40;75.00
32296;DHT22;18781;51.550;5.418;2023-07-31T13:13:50;22.40;74.80
32296;DHT22;18781;51.550;5.418;2023-07-31T13:16:16;22.40;74.80
32296;DHT22;18781;51.550;5.418;2023-07-31T13:18:41;22.40;74.70
32296;DHT22;18781;51.550;5.418;2023-07-31T13:21:07;22.40;74.60
32296;DHT22;18781;51.550;5.418;2023-07-31T13:23:32;22.40;74.60
32296;DHT22;18781;51.550;5.418;2023-07-31T13:25:58;22.40;74.40
32296;DHT22;18781;51.550;5.418;2023-07-31T13:28:23;22.40;74.50
32296;DHT22;18781;51.550;5.418;2023-07-31T13:30:49;22.40;74.30
32296;DHT22;18781;51.550;5.418;2023-07-31T13:33:14;22.40;74.30
32296;DHT22;18781;51.550;5.418;2023-07-31T13:35:40;22.40;74.20
32296;DHT22;18781;51.550;5.418;2023-07-31T13:38:06;22.40;74.20
32296;DHT22;18781;51.550;5.418;2023-07-31T13:40:32;22.40;74.20
32296;DHT22;18781;51.550;5.418;2023-07-31T13:42:57;22.40;74.30
32296;DHT22;18781;51.550;5.418;2023-07-31T13:45:23;22.40;74.50
32296;DHT22;18781;51.550;5.418;2023-07-31T13:47:50;22.40;74.80
32296;DHT22;18781;51.550;5.418;2023-07-31T13:50:16;22.40;74.60
32296;DHT22;18781;51.550;5.418;2023-07-31T13:52:44;22.40;74.80
32296;DHT22;18781;51.550;5.418;2023-07-31T13:55:10;22.40;74.90
32296;DHT22;18781;51.550;5.418;2023-07-31T13:57:35;22.40;75.00
32296;DHT22;18781;51.550;5.418;2023-07-31T14:00:01;22.40;75.10
32296;DHT22;18781;51.550;5.418;2023-07-31T14:02:27;22.40;75.10
32296;DHT22;18781;51.550;5.418;2023-07-31T14:04:53;22.30;75.20
32296;DHT22;18781;51.550;5.418;2023-07-31T14:07:18;22.30;75.30
32296;DHT22;18781;51.550;5.418;2023-07-31T14:09:44;22.30;75.30
32296;DHT22;18781;51.550;5.418;2023-07-31T14:12:10;22.30;75.20
32296;DHT22;18781;51.550;5.418;2023-07-31T14:14:35;22.30;75.20
32296;DHT22;18781;51.550;5.418;2023-07-31T14:17:01;22.30;75.30
32296;DHT22;18781;51.550;5.418;2023-07-31T14:19:27;22.30;75.40
32296;DHT22;18781;51.550;5.418;2023-07-31T14:21:52;22.30;75.50
32296;DHT22;18781;51.550;5.418;2023-07-31T14:24:18;22.30;75.50
32296;DHT22;18781;51.550;5.418;2023-07-31T14:26:43;22.30;75.60
32296;DHT22;18781;51.550;5.418;2023-07-31T14:29:09;22.30;75.80
32296;DHT22;18781;51.550;5.418;2023-07-31T14:31:35;22.30;76.00
32296;DHT22;18781;51.550;5.418;2023-07-31T14:34:01;22.30;75.80
32296;DHT22;18781;51.550;5.418;2023-07-31T14:36:26;22.30;75.70
32296;DHT22;18781;51.550;5.418;2023-07-31T14:38:52;22.30;75.80
32296;DHT22;18781;51.550;5.418;2023-07-31T14:41:17;22.20;75.70
32296;DHT22;18781;51.550;5.418;2023-07-31T14:43:43;22.30;75.70
32296;DHT22;18781;51.550;5.418;2023-07-31T14:46:08;22.30;75.60
32296;DHT22;18781;51.550;5.418;2023-07-31T14:48:34;22.20;75.40
32296;DHT22;18781;51.550;5.418;2023-07-31T14:51:00;22.20;75.50
32296;DHT22;18781;51.550;5.418;2023-07-31T14:53:25;22.20;75.40
32296;DHT22;18781;51.550;5.418;2023-07-31T14:55:51;22.20;75.40
32296;DHT22;18781;51.550;5.418;2023-07-31T14:58:16;22.20;75.50
32296;DHT22;18781;51.550;5.418;2023-07-31T15:00:43;22.20;75.60
32296;DHT22;18781;51.550;5.418;2023-07-31T15:03:08;22.20;75.60
32296;DHT22;18781;51.550;5.418;2023-07-31T15:05:34;22.10;75.60
32296;DHT22;18781;51.550;5.418;2023-07-31T15:07:59;22.10;75.70
32296;DHT22;18781;51.550;5.418;2023-07-31T15:10:25;22.10;75.70
32296;DHT22;18781;51.550;5.418;2023-07-31T15:12:50;22.10;75.80
32296;DHT22;18781;51.550;5.418;2023-07-31T15:15:16;22.10;75.80
32296;DHT22;18781;51.550;5.418;2023-07-31T15:17:42;22.10;75.80
32296;DHT22;18781;51.550;5.418;2023-07-31T15:20:09;22.10;75.90
32296;DHT22;18781;51.550;5.418;2023-07-31T15:22:34;22.00;75.90
32296;DHT22;18781;51.550;5.418;2023-07-31T15:25:00;22.00;75.90
32296;DHT22;18781;51.550;5.418;2023-07-31T15:27:25;22.00;76.50
32296;DHT22;18781;51.550;5.418;2023-07-31T15:29:51;22.00;76.10
32296;DHT22;18781;51.550;5.418;2023-07-31T15:32:17;22.00;76.00
32296;DHT22;18781;51.550;5.418;2023-07-31T15:34:43;22.00;76.10
32296;DHT22;18781;51.550;5.418;2023-07-31T15:37:09;21.90;76.10